Middle Haddam, Connecticut
Current Conditions -  °F | °C
As of 7:35 PM on Friday 21 Nov 2014 (Local Time) from KSNC Reporting Station
Clear Clear  
Wind Chill: 22°   Ceiling: Unl
Heat Index: 28°   Visibility: 10mi
Dew Point:   Wind: 6mph
Humidity: 43%   Direction: 310°NW
Pressure: 30.43"   Gusts: NA
Location:  41.55°N, 72.55°W
Report Text: KSNC 220035Z AUTO 31005KT 10SM CLR M02/M13 A3043 RMK AO2
Loading
Personal Weather Stations






























Interactive Weather Map New forecast layout! Learn more

10-Day Weather Forecast

Advertisements
Track Severe Weather on mobile